sensor_id;sensor_type;location;lat;lon;timestamp;P1;durP1;ratioP1;P2;durP2;ratioP2
3401;SDS011;1714;49.756;8.610;2023-06-22T00:07:48;10.00;;;6.88;;
3401;SDS011;1714;49.756;8.610;2023-06-22T00:18:23;9.48;;;7.57;;
3401;SDS011;1714;49.756;8.610;2023-06-22T00:29:03;9.15;;;7.32;;
3401;SDS011;1714;49.756;8.610;2023-06-22T00:39:38;8.90;;;6.97;;
3401;SDS011;1714;49.756;8.610;2023-06-22T00:50:13;7.80;;;6.80;;
3401;SDS011;1714;49.756;8.610;2023-06-22T01:00:55;9.93;;;6.72;;
3401;SDS011;1714;49.756;8.610;2023-06-22T01:11:45;8.55;;;7.32;;
3401;SDS011;1714;49.756;8.610;2023-06-22T01:22:25;10.18;;;7.03;;
3401;SDS011;1714;49.756;8.610;2023-06-22T01:33:04;11.68;;;7.65;;
3401;SDS011;1714;49.756;8.610;2023-06-22T01:43:40;11.13;;;8.05;;
3401;SDS011;1714;49.756;8.610;2023-06-22T01:54:15;9.93;;;7.50;;
3401;SDS011;1714;49.756;8.610;2023-06-22T02:04:57;12.02;;;8.60;;
3401;SDS011;1714;49.756;8.610;2023-06-22T02:15:36;12.77;;;8.95;;
3401;SDS011;1714;49.756;8.610;2023-06-22T02:26:13;9.63;;;7.88;;
3401;SDS011;1714;49.756;8.610;2023-06-22T02:36:50;10.68;;;8.88;;
3401;SDS011;1714;49.756;8.610;2023-06-22T02:47:26;8.98;;;7.45;;
3401;SDS011;1714;49.756;8.610;2023-06-22T02:58:00;10.70;;;8.23;;
3401;SDS011;1714;49.756;8.610;2023-06-22T03:08:41;9.80;;;8.77;;
3401;SDS011;1714;49.756;8.610;2023-06-22T03:19:17;9.55;;;8.30;;
3401;SDS011;1714;49.756;8.610;2023-06-22T03:29:53;10.48;;;9.30;;
3401;SDS011;1714;49.756;8.610;2023-06-22T03:40:29;10.38;;;8.38;;
3401;SDS011;1714;49.756;8.610;2023-06-22T03:51:05;10.77;;;8.35;;
3401;SDS011;1714;49.756;8.610;2023-06-22T04:01:40;9.57;;;8.30;;
3401;SDS011;1714;49.756;8.610;2023-06-22T04:12:15;13.18;;;8.60;;
3401;SDS011;1714;49.756;8.610;2023-06-22T04:22:49;11.57;;;9.07;;
3401;SDS011;1714;49.756;8.610;2023-06-22T04:33:24;10.75;;;9.52;;
3401;SDS011;1714;49.756;8.610;2023-06-22T04:43:59;10.15;;;8.70;;
3401;SDS011;1714;49.756;8.610;2023-06-22T04:54:34;13.13;;;8.60;;
3401;SDS011;1714;49.756;8.610;2023-06-22T05:05:10;11.45;;;10.05;;
3401;SDS011;1714;49.756;8.610;2023-06-22T05:15:48;13.03;;;10.67;;
3401;SDS011;1714;49.756;8.610;2023-06-22T05:26:22;14.02;;;9.32;;
3401;SDS011;1714;49.756;8.610;2023-06-22T05:36:58;10.40;;;9.30;;
3401;SDS011;1714;49.756;8.610;2023-06-22T05:47:34;11.23;;;9.45;;
3401;SDS011;1714;49.756;8.610;2023-06-22T05:58:09;11.52;;;8.20;;
3401;SDS011;1714;49.756;8.610;2023-06-22T06:08:43;9.63;;;7.32;;
3401;SDS011;1714;49.756;8.610;2023-06-22T06:19:18;10.90;;;7.32;;
3401;SDS011;1714;49.756;8.610;2023-06-22T06:29:53;11.15;;;7.85;;
3401;SDS011;1714;49.756;8.610;2023-06-22T06:40:28;8.80;;;7.63;;
3401;SDS011;1714;49.756;8.610;2023-06-22T06:51:04;9.88;;;7.70;;
3401;SDS011;1714;49.756;8.610;2023-06-22T07:01:39;9.85;;;7.05;;
3401;SDS011;1714;49.756;8.610;2023-06-22T07:12:14;8.18;;;7.32;;
3401;SDS011;1714;49.756;8.610;2023-06-22T07:22:49;11.52;;;8.50;;
3401;SDS011;1714;49.756;8.610;2023-06-22T07:33:25;10.30;;;8.23;;
3401;SDS011;1714;49.756;8.610;2023-06-22T07:43:59;10.50;;;7.78;;
3401;SDS011;1714;49.756;8.610;2023-06-22T07:54:34;13.80;;;7.70;;
3401;SDS011;1714;49.756;8.610;2023-06-22T08:05:10;8.23;;;6.90;;
3401;SDS011;1714;49.756;8.610;2023-06-22T08:15:55;9.55;;;8.10;;
3401;SDS011;1714;49.756;8.610;2023-06-22T08:26:29;10.02;;;7.63;;
3401;SDS011;1714;49.756;8.610;2023-06-22T08:37:04;8.10;;;7.18;;
3401;SDS011;1714;49.756;8.610;2023-06-22T08:47:41;8.98;;;7.05;;
3401;SDS011;1714;49.756;8.610;2023-06-22T08:58:16;8.07;;;7.20;;
3401;SDS011;1714;49.756;8.610;2023-06-22T09:08:52;9.60;;;7.97;;
3401;SDS011;1714;49.756;8.610;2023-06-22T09:19:27;8.43;;;7.63;;
3401;SDS011;1714;49.756;8.610;2023-06-22T09:30:02;8.73;;;6.82;;
3401;SDS011;1714;49.756;8.610;2023-06-22T09:40:41;7.00;;;6.30;;
3401;SDS011;1714;49.756;8.610;2023-06-22T09:51:19;8.63;;;6.50;;
3401;SDS011;1714;49.756;8.610;2023-06-22T10:01:58;10.40;;;7.05;;
3401;SDS011;1714;49.756;8.610;2023-06-22T10:12:41;8.88;;;6.43;;
3401;SDS011;1714;49.756;8.610;2023-06-22T10:23:18;6.80;;;5.75;;
3401;SDS011;1714;49.756;8.610;2023-06-22T10:33:53;7.53;;;6.35;;
3401;SDS011;1714;49.756;8.610;2023-06-22T10:44:29;9.65;;;6.38;;
3401;SDS011;1714;49.756;8.610;2023-06-22T10:55:04;9.30;;;6.85;;
3401;SDS011;1714;49.756;8.610;2023-06-22T11:05:40;7.03;;;6.07;;
3401;SDS011;1714;49.756;8.610;2023-06-22T11:16:15;7.90;;;6.37;;
3401;SDS011;1714;49.756;8.610;2023-06-22T11:26:50;8.07;;;5.88;;
3401;SDS011;1714;49.756;8.610;2023-06-22T11:37:25;7.78;;;5.90;;
3401;SDS011;1714;49.756;8.610;2023-06-22T11:48:00;10.20;;;5.38;;
3401;SDS011;1714;49.756;8.610;2023-06-22T11:58:34;8.35;;;5.53;;
3401;SDS011;1714;49.756;8.610;2023-06-22T12:09:09;8.80;;;5.60;;
3401;SDS011;1714;49.756;8.610;2023-06-22T12:19:44;10.57;;;5.20;;
3401;SDS011;1714;49.756;8.610;2023-06-22T12:30:19;7.30;;;4.47;;
3401;SDS011;1714;49.756;8.610;2023-06-22T12:40:54;7.15;;;5.05;;
3401;SDS011;1714;49.756;8.610;2023-06-22T12:51:29;6.63;;;4.80;;
3401;SDS011;1714;49.756;8.610;2023-06-22T13:02:04;8.52;;;5.20;;
3401;SDS011;1714;49.756;8.610;2023-06-22T13:12:39;6.87;;;4.53;;
3401;SDS011;1714;49.756;8.610;2023-06-22T13:23:14;12.07;;;5.10;;
3401;SDS011;1714;49.756;8.610;2023-06-22T13:33:48;10.80;;;5.07;;
3401;SDS011;1714;49.756;8.610;2023-06-22T13:44:26;11.45;;;4.72;;
3401;SDS011;1714;49.756;8.610;2023-06-22T13:55:03;9.40;;;4.90;;
3401;SDS011;1714;49.756;8.610;2023-06-22T14:05:38;5.85;;;3.65;;
3401;SDS011;1714;49.756;8.610;2023-06-22T14:16:15;12.95;;;5.07;;
3401;SDS011;1714;49.756;8.610;2023-06-22T14:26:50;13.00;;;4.45;;
3401;SDS011;1714;49.756;8.610;2023-06-22T14:37:24;11.57;;;4.75;;
3401;SDS011;1714;49.756;8.610;2023-06-22T14:47:59;9.25;;;4.47;;
3401;SDS011;1714;49.756;8.610;2023-06-22T14:58:34;8.00;;;4.67;;
3401;SDS011;1714;49.756;8.610;2023-06-22T15:09:11;5.93;;;4.15;;
3401;SDS011;1714;49.756;8.610;2023-06-22T15:19:46;10.10;;;4.32;;
3401;SDS011;1714;49.756;8.610;2023-06-22T15:30:21;6.72;;;4.13;;
3401;SDS011;1714;49.756;8.610;2023-06-22T15:40:56;16.27;;;5.53;;
3401;SDS011;1714;49.756;8.610;2023-06-22T15:51:31;11.68;;;4.97;;
3401;SDS011;1714;49.756;8.610;2023-06-22T16:02:06;13.32;;;5.07;;
3401;SDS011;1714;49.756;8.610;2023-06-22T16:12:42;11.40;;;4.87;;
3401;SDS011;1714;49.756;8.610;2023-06-22T16:23:20;13.73;;;6.05;;
3401;SDS011;1714;49.756;8.610;2023-06-22T16:33:54;13.90;;;5.00;;
3401;SDS011;1714;49.756;8.610;2023-06-22T16:44:29;8.85;;;4.57;;
3401;SDS011;1714;49.756;8.610;2023-06-22T16:55:07;12.60;;;5.43;;
3401;SDS011;1714;49.756;8.610;2023-06-22T17:05:43;12.88;;;3.75;;
3401;SDS011;1714;49.756;8.610;2023-06-22T17:16:18;6.25;;;2.83;;
3401;SDS011;1714;49.756;8.610;2023-06-22T17:26:53;8.98;;;2.83;;
3401;SDS011;1714;49.756;8.610;2023-06-22T17:37:32;6.85;;;2.90;;
3401;SDS011;1714;49.756;8.610;2023-06-22T17:48:08;12.73;;;3.63;;
3401;SDS011;1714;49.756;8.610;2023-06-22T17:58:50;5.53;;;2.80;;
3401;SDS011;1714;49.756;8.610;2023-06-22T18:09:26;6.88;;;3.40;;
3401;SDS011;1714;49.756;8.610;2023-06-22T18:20:02;10.07;;;2.90;;
3401;SDS011;1714;49.756;8.610;2023-06-22T18:30:44;15.05;;;3.58;;
3401;SDS011;1714;49.756;8.610;2023-06-22T18:41:23;5.55;;;2.70;;
3401;SDS011;1714;49.756;8.610;2023-06-22T18:52:06;10.40;;;2.95;;
3401;SDS011;1714;49.756;8.610;2023-06-22T19:02:44;7.97;;;2.88;;
3401;SDS011;1714;49.756;8.610;2023-06-22T19:13:29;7.70;;;3.10;;
3401;SDS011;1714;49.756;8.610;2023-06-22T19:24:04;11.75;;;3.25;;
3401;SDS011;1714;49.756;8.610;2023-06-22T19:34:45;3.50;;;2.15;;
3401;SDS011;1714;49.756;8.610;2023-06-22T19:45:22;4.85;;;2.60;;
3401;SDS011;1714;49.756;8.610;2023-06-22T19:55:57;7.15;;;1.75;;
3401;SDS011;1714;49.756;8.610;2023-06-22T20:06:32;8.15;;;2.10;;
3401;SDS011;1714;49.756;8.610;2023-06-22T20:17:14;5.72;;;1.25;;
3401;SDS011;1714;49.756;8.610;2023-06-22T20:27:49;0.90;;;0.60;;
3401;SDS011;1714;49.756;8.610;2023-06-22T20:38:31;0.85;;;0.60;;
3401;SDS011;1714;49.756;8.610;2023-06-22T20:49:07;4.03;;;0.70;;
3401;SDS011;1714;49.756;8.610;2023-06-22T20:59:42;1.15;;;0.77;;
3401;SDS011;1714;49.756;8.610;2023-06-22T21:10:17;2.58;;;0.80;;
3401;SDS011;1714;49.756;8.610;2023-06-22T21:20:52;1.30;;;0.50;;
3401;SDS011;1714;49.756;8.610;2023-06-22T21:31:27;0.70;;;0.60;;
3401;SDS011;1714;49.756;8.610;2023-06-22T21:42:01;4.03;;;0.30;;
3401;SDS011;1714;49.756;8.610;2023-06-22T21:52:36;2.25;;;0.80;;
3401;SDS011;1714;49.756;8.610;2023-06-22T22:03:11;2.60;;;0.50;;
3401;SDS011;1714;49.756;8.610;2023-06-22T22:13:46;0.38;;;0.38;;
3401;SDS011;1714;49.756;8.610;2023-06-22T22:24:20;0.50;;;0.50;;
3401;SDS011;1714;49.756;8.610;2023-06-22T22:34:55;2.10;;;0.60;;
3401;SDS011;1714;49.756;8.610;2023-06-22T22:45:29;0.90;;;0.40;;
3401;SDS011;1714;49.756;8.610;2023-06-22T22:56:05;0.20;;;0.20;;
3401;SDS011;1714;49.756;8.610;2023-06-22T23:06:40;0.73;;;0.30;;
3401;SDS011;1714;49.756;8.610;2023-06-22T23:17:15;0.80;;;0.80;;
3401;SDS011;1714;49.756;8.610;2023-06-22T23:27:53;2.10;;;1.83;;
3401;SDS011;1714;49.756;8.610;2023-06-22T23:38:27;3.95;;;2.50;;
3401;SDS011;1714;49.756;8.610;2023-06-22T23:49:02;3.70;;;2.38;;
3401;SDS011;1714;49.756;8.610;2023-06-22T23:59:37;2.88;;;2.33;;
